Station: Coonawarra

  Atmospheric Gas Attenuation - ITU Rec 676-11   --------------- db/100km ---------------
Date Time Temp RH % AH g/m3 Dew Point Wind Direction Speed kph Gust kph Barometer mB Rainfall Since 9am 24GHz 47GHz 76GHz 122GHz 134GHz 241GHz
15 00:10 7.4 86 6.84 5.2 7 7 1019.9 4 16.1 25.1 36.0 94.1 82.9 283.1
15 00:00 7.5 86 6.89 5.3 9 9 1019.9 4 16.2 25.2 36.2 94.6 83.4 285.1
14 23:50 7.4 86 6.84 5.2 7 9 1020 4 16.1 25.1 36.0 94.1 82.9 283.1
14 23:40 7.4 86 6.84 5.2 7 7 1020 4 16.1 25.1 36.0 94.1 82.9 283.1
14 23:30 7.5 85 6.81 5.1 9 11 1020 4 16.0 25.0 35.8 93.7 82.4 281.3
14 23:20 7.4 86 6.84 5.2 9 9 1020.1 4 16.1 25.1 36.0 94.2 82.9 283.2
14 23:10 7.3 85 6.72 4.9 7 9 1020 4 15.8 24.9 35.6 92.9 81.3 277.8
14 23:00 7.3 85 6.72 4.9 7 9 1019.9 4 15.8 24.9 35.6 92.9 81.3 277.8
14 22:50 7.3 84 6.64 4.8 9 11 1019.8 4 15.7 24.8 35.2 92.1 80.3 274.0
14 22:40 7.3 85 6.72 4.9 11 13 1019.8 4 15.8 24.9 35.5 92.9 81.3 277.8
14 22:30 7.3 84 6.64 4.8 11 11 1019.7 4 15.7 24.8 35.2 92.0 80.3 274.0
14 22:20 7.4 85 6.76 5 9 11 1019.7 4 15.9 25.0 35.7 93.2 81.8 279.3
14 22:10 7.5 85 6.81 5.1 9 11 1019.6 4 16.0 25.0 35.8 93.7 82.3 281.3
14 22:00 7.3 86 6.8 5.1 9 13 1019.6 4 16.0 25.0 35.9 93.8 82.4 281.5
14 21:50 7.2 85 6.68 4.9 9 9 1019.7 4 15.8 24.9 35.4 92.6 80.9 276.2
14 21:40 7.4 84 6.68 4.9 9 13 1019.6 4 15.8 24.8 35.3 92.4 80.7 275.5
14 21:30 7.4 85 6.76 5 9 11 1019.6 4 15.9 25.0 35.7 93.2 81.8 279.2
14 21:20 7.6 85 6.85 5.2 7 9 1019.6 4 16.1 25.0 35.9 94.0 82.8 282.8
14 21:10 7.8 85 6.94 5.4 7 9 1019.6 4 16.3 25.1 36.2 94.7 83.8 286.3
14 21:00 7.9 85 6.98 5.5 7 9 1019.6 4 16.4 25.2 36.3 95.0 84.2 287.9
14 20:50 7.9 85 6.98 5.5 7 9 1019.6 4 16.4 25.2 36.3 95.0 84.2 287.9
14 20:40 7.9 84 6.9 5.4 7 9 1019.6 4 16.2 25.0 36.0 94.2 83.1 284.1
14 20:30 7.9 84 6.9 5.4 9 11 1019.4 4 16.2 25.0 36.0 94.1 83.1 284.0
14 20:20 7.8 85 6.94 5.4 9 9 1019.3 4 16.3 25.1 36.2 94.7 83.7 286.3
14 20:10 7.7 86 6.98 5.5 7 9 1019.3 4 16.4 25.2 36.4 95.2 84.4 288.5
14 20:00 7.7 86 6.98 5.5 11 13 1019.1 4 16.4 25.2 36.4 95.2 84.4 288.5
14 19:50 7.7 87 7.06 5.7 13 15 1019 4 16.6 25.3 36.7 96.1 85.5 292.3
14 19:40 7.7 86 6.98 5.5 11 15 1018.8 4 16.4 25.2 36.4 95.2 84.4 288.4
14 19:30 7.8 86 7.02 5.6 15 17 1018.8 4 16.5 25.2 36.5 95.5 84.8 289.9
14 19:20 7.8 86 7.02 5.6 13 15 1018.8 4 16.5 25.2 36.5 95.5 84.8 289.9
14 19:10 7.9 85 6.98 5.5 11 13 1018.8 4 16.4 25.1 36.3 95.0 84.1 287.7
14 19:00 8.1 85 7.08 5.7 13 15 1018.7 4 16.6 25.3 36.6 95.8 85.3 291.6
14 18:50 8 85 7.03 5.6 13 17 1018.5 4 16.5 25.2 36.4 95.4 84.7 289.6
14 18:40 8.1 85 7.08 5.7 13 15 1018.5 4 16.6 25.2 36.6 95.8 85.2 291.6
14 18:30 8.2 85 7.12 5.8 11 13 1018.5 4 16.7 25.3 36.7 96.1 85.7 293.1
14 18:20 8.3 84 7.08 5.8 11 13 1018.4 4 16.6 25.2 36.5 95.5 85.0 290.8
14 18:10 8.5 83 7.09 5.8 11 13 1018.2 4 16.6 25.1 36.4 95.4 84.9 290.5
14 18:00 8.6 82 7.05 5.7 13 15 1018.1 4 16.5 25.0 36.2 94.8 84.3 288.2
14 17:50 8.7 82 7.09 5.8 11 13 1018.1 4 16.6 25.1 36.3 95.1 84.7 289.7
14 17:40 8.8 82 7.14 5.9 11 13 1018 4 16.7 25.1 36.5 95.5 85.2 291.7
14 17:30 8.8 82 7.14 5.9 13 19 1017.9 4 16.7 25.1 36.5 95.5 85.2 291.7
14 17:20 8.9 82 7.19 6 13 15 1017.9 4 16.8 25.2 36.7 95.9 85.8 293.7
14 17:10 9 82 7.23 6.1 13 15 1017.8 4 16.9 25.2 36.8 96.2 86.2 295.1
14 17:00 9.1 82 7.28 6.2 15 24 1017.6 4 17.0 25.3 36.9 96.6 86.8 297.1
14 16:50 9.1 82 7.28 6.2 13 17 1017.5 4 17.0 25.3 36.9 96.6 86.8 297.0
14 16:40 9.1 82 7.28 6.2 22 26 1017.4 4 17.0 25.2 36.9 96.6 86.7 297.0
14 16:30 9.3 84 7.55 6.7 15 17 1017.4 4 17.5 25.6 37.9 99.3 90.2 309.0
14 16:20 9.4 83 7.51 6.7 13 15 1017.4 4 17.5 25.5 37.7 98.8 89.5 306.7
14 16:10 9.4 83 7.51 6.7 20 24 1017.3 4 17.5 25.5 37.7 98.8 89.5 306.7
14 16:00 9.4 81 7.33 6.3 22 24 1017.1 4 17.1 25.2 37.0 96.8 87.1 298.2
14 15:50 9.5 85 7.74 7.1 20 22 1017 4 17.9 25.9 38.6 101.1 92.5 317.1
14 15:40 9.6 86 7.88 7.4 19 20 1017.1 4 18.2 26.1 39.1 102.6 94.3 323.4
14 15:30 9.7 86 7.93 7.5 17 22 1017.1 4 18.3 26.1 39.3 103.0 94.8 325.4
14 15:20 9.6 84 7.7 7 20 22 1017 4 17.9 25.8 38.4 100.6 91.8 314.8
14 15:10 9.8 86 7.98 7.6 17 22 1017 4 18.4 26.2 39.4 103.4 95.4 327.4
14 15:00 9.7 86 7.93 7.5 17 26 1017 4 18.3 26.1 39.3 103.0 94.8 325.4
14 14:50 9.7 86 7.93 7.5 20 22 1016.9 4 18.3 26.1 39.3 103.0 94.8 325.4
14 14:40 9.9 88 8.22 8 13 15 1016.9 4 19.0 26.6 40.4 105.9 98.5 338.4
14 14:30 9.9 88 8.22 8 17 24 1016.8 4 19.0 26.6 40.4 105.9 98.5 338.4
14 14:20 9.9 88 8.22 8 13 17 1016.8 4 19.0 26.6 40.4 105.9 98.5 338.4
14 14:10 9.7 89 8.21 8 15 20 1016.8 4 18.9 26.6 40.4 106.1 98.7 338.8
14 14:00 9.5 89 8.1 7.8 17 19 1016.8 4 18.7 26.5 40.1 105.1 97.4 334.3
14 13:50 9.7 91 8.39 8.3 9 11 1016.9 4 19.3 26.9 41.2 108.1 101.2 347.6
14 13:40 9.5 90 8.19 7.9 19 20 1016.9 4 18.9 26.6 40.5 106.1 98.6 338.7
14 13:30 9.5 91 8.29 8.1 17 24 1017 4 19.1 26.8 40.9 107.3 100.0 343.6
14 13:20 9.4 91 8.23 8 17 24 1017.1 4 19.0 26.7 40.7 106.7 99.3 341.2
14 13:10 9.4 91 8.23 8 17 20 1017.1 3.8 19.0 26.7 40.7 106.7 99.3 341.2
14 13:00 9.5 92 8.38 8.3 13 22 1017.2 3.8 19.3 27.0 41.3 108.3 101.3 348.0
14 12:50 9.4 92 8.32 8.2 17 17 1017.3 3.8 19.2 26.9 41.1 107.8 100.6 345.6
14 12:40 9.3 92 8.27 8.1 17 20 1017.4 3.8 19.1 26.8 40.9 107.4 100.1 343.6
14 12:30 9 92 8.11 7.8 15 17 1017.5 3.6 18.8 26.7 40.4 106.0 98.2 337.2
14 12:20 9.2 93 8.31 8.1 11 13 1017.7 3.4 19.2 27.0 41.2 108.0 100.8 346.1
14 12:10 9 93 8.2 7.9 13 17 1017.8 3.4 19.0 26.8 40.8 107.0 99.5 341.7
14 12:00 8.8 93 8.1 7.7 13 17 1017.9 3.2 18.8 26.7 40.5 106.2 98.4 337.7
14 11:50 8.7 93 8.05 7.6 15 17 1018 2.8 18.6 26.7 40.3 105.8 97.8 335.7
14 11:40 8.6 92 7.91 7.4 17 19 1018 2.4 18.4 26.5 39.8 104.3 96.0 329.3
14 11:30 8.7 92 7.96 7.5 13 15 1018.2 2 18.5 26.5 40.0 104.8 96.6 331.4
14 11:20 8.6 91 7.82 7.2 15 20 1018.3 1.6 18.2 26.3 39.4 103.3 94.8 325.0
14 11:10 8.6 91 7.82 7.2 15 17 1018.4 1.4 18.2 26.3 39.4 103.3 94.8 325.1
14 11:00 8.5 90 7.69 7 20 24 1018.6 1.2 17.9 26.1 38.9 102.0 93.1 319.2
14 10:50 8.7 90 7.79 7.2 15 22 1018.7 0.8 18.1 26.3 39.3 102.9 94.3 323.3
14 10:40 8.6 89 7.65 6.9 17 19 1018.8 0.6 17.8 26.1 38.7 101.5 92.5 316.9
14 10:30 8.7 90 7.79 7.2 13 15 1018.9 0.6 18.1 26.3 39.3 102.9 94.3 323.3
14 10:20 8.6 89 7.65 6.9 13 17 1018.9 0.4 17.8 26.1 38.7 101.5 92.5 317.0
14 10:10 8.6 90 7.74 7.1 13 15 1019 0.4 18.0 26.2 39.1 102.5 93.7 321.3
14 10:00 8.4 90 7.64 6.9 13 17 1019 0.4 17.8 26.1 38.8 101.7 92.6 317.3
14 09:50 8.4 89 7.55 6.7 15 15 1019 0.2 17.6 26.0 38.4 100.6 91.3 313.0
14 09:40 8.3 88 7.42 6.4 13 15 1018.9 0 17.3 25.8 37.9 99.3 89.7 307.1
14 09:30 8.3 88 7.42 6.4 15 17 1018.9 0 17.3 25.8 37.9 99.3 89.7 307.1
14 09:20 8.3 87 7.34 6.3 15 17 1018.8 0 17.1 25.6 37.6 98.4 88.6 303.3
14 09:10 8.3 87 7.34 6.3 13 17 1018.9 0 17.1 25.6 37.6 98.4 88.6 303.3
14 09:00 8.4 86 7.3 6.2 15 17 1018.9 0 17.0 25.5 37.4 97.9 87.9 301.0
14 08:50 8.5 85 7.26 6.1 15 17 1018.8 0.2 17.0 25.4 37.2 97.3 87.3 298.7
14 08:40 8.5 83 7.09 5.8 13 19 1018.8 0 16.6 25.2 36.5 95.4 85.0 290.6
14 08:30 8.6 82 7.05 5.7 15 17 1018.8 0 16.5 25.1 36.3 94.9 84.3 288.4
14 08:20 8.7 80 6.92 5.4 13 15 1018.7 0 16.2 24.8 35.7 93.3 82.5 281.9
14 08:10 8.8 79 6.88 5.4 11 13 1018.8 0 16.1 24.7 35.5 92.8 81.8 279.7
14 08:00 8.8 78 6.79 5.2 13 17 1018.7 0 15.9 24.6 35.1 91.8 80.6 275.5
14 07:50 8.7 78 6.75 5.1 11 13 1018.7 0 15.9 24.5 35.0 91.5 80.2 274.0
14 07:40 8.7 78 6.75 5.1 11 15 1018.7 0 15.9 24.5 35.0 91.5 80.2 274.0

Last Refresh: 15-Jun-2024 00:27:57

Bureau of Meteorology